Time;durP1;ratioP1;P1;durP2;ratioP2;P2;SDS_P1;SDS_P2;PMS_P1;PMS_P2;Temp;Humidity;BMP_temperature;BMP_pressure;BME280_temperature;BME280_humidity;BME280_pressure;Samples;Min_cycle;Max_cycle;Signal;HPM_P1;HPM_P2
2021/12/28 00:00:23;;;;;;;12.15;4.85;;;;;;;;;;5028571;28;20050;-56
2021/12/28 00:02:51;;;;;;;11.98;4.03;;;;;;;;;;5033283;28;20056;-53
2021/12/28 00:05:18;;;;;;;9.83;4.40;;;;;;;;;;5047983;28;20060;-56
2021/12/28 00:07:45;;;;;;;7.60;3.47;;;;;;;;;;5044676;28;20303;-54
2021/12/28 00:10:14;;;;;;;11.85;3.92;;;;;;;;;;5048143;28;20048;-56
2021/12/28 00:12:41;;;;;;;11.68;4.07;;;;;;;;;;5037461;28;20049;-52
2021/12/28 00:15:19;;;;;;;14.10;4.47;;;;;;;;;;5030445;28;20132;-55
2021/12/28 00:18:02;;;;;;;9.98;4.03;;;;;;;;;;5042356;28;20047;-53
2021/12/28 00:20:32;;;;;;;12.05;3.55;;;;;;;;;;5048072;28;20088;-54
2021/12/28 00:22:59;;;;;;;8.48;3.78;;;;;;;;;;5043102;28;20137;-58
2021/12/28 00:25:26;;;;;;;11.40;3.50;;;;;;;;;;5047631;28;20142;-55
2021/12/28 00:27:52;;;;;;;7.47;3.47;;;;;;;;;;5044978;28;20061;-57
2021/12/28 00:30:20;;;;;;;8.30;3.55;;;;;;;;;;5046743;28;20063;-58
2021/12/28 00:32:52;;;;;;;8.95;3.20;;;;;;;;;;5047547;28;20118;-57
2021/12/28 00:35:19;;;;;;;6.90;3.67;;;;;;;;;;5043025;28;20067;-56
2021/12/28 00:37:47;;;;;;;6.53;2.88;;;;;;;;;;5048056;28;20122;-57
2021/12/28 00:40:13;;;;;;;8.30;3.53;;;;;;;;;;5046113;28;20061;-54
2021/12/28 00:42:40;;;;;;;14.02;4.10;;;;;;;;;;5050111;28;20326;-57
2021/12/28 00:45:07;;;;;;;11.15;4.32;;;;;;;;;;5042642;28;20049;-52
2021/12/28 00:47:33;;;;;;;7.45;3.42;;;;;;;;;;5040498;28;20064;-57
2021/12/28 00:50:00;;;;;;;11.05;3.15;;;;;;;;;;5048718;28;20125;-55
2021/12/28 00:52:27;;;;;;;10.15;4.18;;;;;;;;;;5051874;28;20144;-53
2021/12/28 00:54:55;;;;;;;10.73;3.97;;;;;;;;;;5039364;28;20156;-55
2021/12/28 00:57:21;;;;;;;13.53;3.83;;;;;;;;;;5038515;28;20048;-53
2021/12/28 00:59:49;;;;;;;10.20;3.63;;;;;;;;;;5041630;28;20053;-59
2021/12/28 01:02:15;;;;;;;8.95;3.33;;;;;;;;;;5031039;28;20065;-57
2021/12/28 01:04:42;;;;;;;7.60;3.20;;;;;;;;;;5030842;28;20072;-58
2021/12/28 01:07:08;;;;;;;9.57;3.75;;;;;;;;;;5051533;28;20056;-58
2021/12/28 01:09:35;;;;;;;9.02;3.75;;;;;;;;;;5047329;28;20099;-53
2021/12/28 01:12:05;;;;;;;11.45;3.55;;;;;;;;;;5051037;28;20060;-58
2021/12/28 01:14:32;;;;;;;10.05;3.55;;;;;;;;;;5064667;28;20056;-55
2021/12/28 01:16:59;;;;;;;7.63;3.28;;;;;;;;;;5047205;28;20114;-53
2021/12/28 01:19:26;;;;;;;19.52;3.47;;;;;;;;;;5040779;28;20137;-60
2021/12/28 01:21:55;;;;;;;9.52;3.63;;;;;;;;;;5044541;28;20145;-62
2021/12/28 01:24:21;;;;;;;8.90;3.10;;;;;;;;;;5047461;28;20055;-56
2021/12/28 01:26:48;;;;;;;10.57;3.15;;;;;;;;;;5033868;28;20053;-53
2021/12/28 01:29:16;;;;;;;9.50;3.22;;;;;;;;;;5038625;28;20052;-54
2021/12/28 01:31:42;;;;;;;10.57;3.53;;;;;;;;;;5042599;28;20098;-55
2021/12/28 01:34:09;;;;;;;11.15;2.95;;;;;;;;;;5046302;28;20152;-58
2021/12/28 01:36:36;;;;;;;6.18;3.05;;;;;;;;;;5042385;28;20467;-56
2021/12/28 01:39:04;;;;;;;8.02;2.90;;;;;;;;;;5045498;28;20052;-58
2021/12/28 01:41:31;;;;;;;14.10;3.43;;;;;;;;;;5042352;28;20049;-61
2021/12/28 01:43:58;;;;;;;9.55;3.70;;;;;;;;;;5046222;28;20055;-57
2021/12/28 01:46:25;;;;;;;10.77;3.33;;;;;;;;;;5041626;28;20045;-55
2021/12/28 01:48:52;;;;;;;9.63;3.13;;;;;;;;;;5045871;28;20351;-58
2021/12/28 01:51:20;;;;;;;10.23;3.13;;;;;;;;;;5041197;28;20183;-56
2021/12/28 01:53:48;;;;;;;7.13;2.70;;;;;;;;;;5045844;28;20052;-57
2021/12/28 01:56:17;;;;;;;11.15;3.05;;;;;;;;;;5044783;28;20049;-58
2021/12/28 01:58:44;;;;;;;15.63;2.92;;;;;;;;;;5044175;28;20049;-56
2021/12/28 02:01:11;;;;;;;11.77;3.03;;;;;;;;;;5046007;28;20056;-56
2021/12/28 02:03:40;;;;;;;5.80;2.13;;;;;;;;;;5024818;28;20148;-56
2021/12/28 02:06:07;;;;;;;11.20;2.90;;;;;;;;;;5025665;28;20049;-56
2021/12/28 02:08:34;;;;;;;13.20;3.20;;;;;;;;;;5037128;28;20144;-55
2021/12/28 02:11:01;;;;;;;10.82;2.97;;;;;;;;;;5045603;28;20071;-54
2021/12/28 02:13:28;;;;;;;11.52;2.90;;;;;;;;;;5033736;28;20057;-56
2021/12/28 02:15:56;;;;;;;16.35;3.63;;;;;;;;;;5026888;28;20072;-56
2021/12/28 02:18:23;;;;;;;15.60;2.70;;;;;;;;;;5033488;28;20041;-55
2021/12/28 02:20:53;;;;;;;11.75;2.78;;;;;;;;;;5045685;28;20141;-58
2021/12/28 02:23:19;;;;;;;7.53;3.22;;;;;;;;;;5041724;28;20052;-55
2021/12/28 02:25:46;;;;;;;12.50;3.40;;;;;;;;;;5045540;28;20068;-57
2021/12/28 02:28:13;;;;;;;10.38;2.88;;;;;;;;;;5036402;28;20073;-54
2021/12/28 02:30:42;;;;;;;6.97;2.70;;;;;;;;;;5024951;28;20084;-54
2021/12/28 02:33:08;;;;;;;10.63;3.17;;;;;;;;;;5026158;28;20064;-52
2021/12/28 02:35:35;;;;;;;13.32;2.47;;;;;;;;;;5045945;28;20037;-55
2021/12/28 02:38:03;;;;;;;8.60;3.05;;;;;;;;;;5041670;28;20119;-55
2021/12/28 02:40:31;;;;;;;11.65;3.13;;;;;;;;;;5046181;28;20129;-56
2021/12/28 02:42:59;;;;;;;16.17;2.30;;;;;;;;;;5046233;28;20160;-57
2021/12/28 02:45:26;;;;;;;8.65;2.20;;;;;;;;;;5042960;28;20055;-55
2021/12/28 02:47:52;;;;;;;8.35;2.50;;;;;;;;;;5049095;28;20041;-55
2021/12/28 02:50:22;;;;;;;9.20;2.78;;;;;;;;;;5045099;28;20135;-55
2021/12/28 02:52:48;;;;;;;6.80;1.98;;;;;;;;;;5046370;28;20111;-53
2021/12/28 02:55:17;;;;;;;6.47;2.15;;;;;;;;;;5041644;28;20140;-55
2021/12/28 02:57:48;;;;;;;9.18;2.35;;;;;;;;;;5032633;28;20087;-57
2021/12/28 03:00:29;;;;;;;12.43;2.33;;;;;;;;;;5044813;28;20057;-57
2021/12/28 03:02:55;;;;;;;5.88;2.20;;;;;;;;;;5048705;28;20059;-54
2021/12/28 03:05:22;;;;;;;11.85;2.60;;;;;;;;;;5042316;28;20049;-60
2021/12/28 03:07:49;;;;;;;6.13;2.17;;;;;;;;;;5046161;28;20049;-53
2021/12/28 03:10:18;;;;;;;13.10;2.13;;;;;;;;;;5048339;28;20073;-55
2021/12/28 03:12:44;;;;;;;7.50;2.22;;;;;;;;;;5045300;28;20134;-55
2021/12/28 03:15:12;;;;;;;12.95;2.20;;;;;;;;;;5041121;28;20151;-56
2021/12/28 03:17:39;;;;;;;9.43;2.27;;;;;;;;;;5044665;28;20144;-55
2021/12/28 03:20:06;;;;;;;7.50;2.15;;;;;;;;;;5040575;28;20055;-53
2021/12/28 03:22:36;;;;;;;8.00;2.28;;;;;;;;;;5048941;28;20057;-53
2021/12/28 03:25:03;;;;;;;8.43;2.15;;;;;;;;;;5042995;28;22085;-55
2021/12/28 03:27:31;;;;;;;12.60;2.08;;;;;;;;;;5021297;28;20070;-56
2021/12/28 03:29:58;;;;;;;7.63;1.95;;;;;;;;;;5020043;28;20354;-52
2021/12/28 03:32:25;;;;;;;11.02;1.73;;;;;;;;;;5032363;28;20057;-55
2021/12/28 03:34:51;;;;;;;19.80;2.47;;;;;;;;;;5049031;28;20059;-52
2021/12/28 03:37:18;;;;;;;10.60;2.70;;;;;;;;;;5062738;28;20056;-56
2021/12/28 03:39:44;;;;;;;7.00;2.08;;;;;;;;;;5051782;28;20106;-50
2021/12/28 03:42:11;;;;;;;11.07;2.38;;;;;;;;;;5036510;28;20063;-54
2021/12/28 03:44:39;;;;;;;12.57;2.15;;;;;;;;;;5032930;28;20064;-56
2021/12/28 03:47:06;;;;;;;8.50;1.77;;;;;;;;;;5046078;28;20053;-54
2021/12/28 03:49:33;;;;;;;8.00;1.63;;;;;;;;;;5044717;28;20302;-56
2021/12/28 03:52:00;;;;;;;10.80;1.88;;;;;;;;;;5064465;28;20135;-58
2021/12/28 03:54:26;;;;;;;7.82;1.90;;;;;;;;;;5051679;28;20056;-54
2021/12/28 03:56:53;;;;;;;12.93;2.40;;;;;;;;;;5047480;28;20055;-55
2021/12/28 03:59:20;;;;;;;6.82;1.77;;;;;;;;;;5048578;28;20070;-54
2021/12/28 04:01:49;;;;;;;11.98;1.88;;;;;;;;;;5039970;28;20045;-56
2021/12/28 04:04:15;;;;;;;;;;;;;;;;;;5029694;28;20063;-55
2021/12/28 04:06:41;;;;;;;12.63;1.73;;;;;;;;;;5028361;28;20291;-53
2021/12/28 04:09:11;;;;;;;10.25;2.38;;;;;;;;;;5048551;28;20061;-56
2021/12/28 04:11:39;;;;;;;11.60;1.58;;;;;;;;;;5044799;28;20056;-57
2021/12/28 04:14:07;;;;;;;7.85;1.63;;;;;;;;;;5049528;28;20057;-54
2021/12/28 04:16:34;;;;;;;5.50;1.38;;;;;;;;;;5049621;28;20530;-55
2021/12/28 04:19:03;;;;;;;9.05;1.80;;;;;;;;;;5047041;28;20072;-55
2021/12/28 04:21:30;;;;;;;9.57;1.67;;;;;;;;;;5050713;28;20049;-55
2021/12/28 04:23:57;;;;;;;6.22;1.80;;;;;;;;;;5044900;28;20060;-55
2021/12/28 04:26:24;;;;;;;17.67;2.05;;;;;;;;;;5048144;28;20133;-52
2021/12/28 04:28:50;;;;;;;7.00;1.85;;;;;;;;;;5044065;28;20053;-53
2021/12/28 04:31:17;;;;;;;4.00;1.63;;;;;;;;;;5047778;28;20077;-54
2021/12/28 04:33:44;;;;;;;8.07;2.03;;;;;;;;;;5040813;28;20111;-54
2021/12/28 04:36:13;;;;;;;10.95;2.20;;;;;;;;;;5027666;28;20096;-54
2021/12/28 04:38:39;;;;;;;;;;;;;;;;;;5033068;28;20635;-55
2021/12/28 04:41:07;;;;;;;9.23;1.85;;;;;;;;;;5047208;28;19928;-56
2021/12/28 04:43:34;;;;;;;12.95;2.35;;;;;;;;;;5037256;28;20060;-56
2021/12/28 04:46:00;;;;;;;5.75;1.80;;;;;;;;;;5026321;28;20045;-52
2021/12/28 04:48:27;;;;;;;10.20;1.70;;;;;;;;;;5026642;28;20044;-53
2021/12/28 04:50:54;;;;;;;6.60;1.90;;;;;;;;;;5047726;28;20138;-58
2021/12/28 04:53:22;;;;;;;14.48;2.13;;;;;;;;;;5043778;28;20124;-56
2021/12/28 04:55:49;;;;;;;11.53;1.87;;;;;;;;;;5047716;28;20489;-56
2021/12/28 04:58:16;;;;;;;5.05;1.58;;;;;;;;;;5047787;28;20149;-53
2021/12/28 05:00:44;;;;;;;7.82;1.63;;;;;;;;;;5042221;28;20045;-57
2021/12/28 05:03:11;;;;;;;9.20;1.95;;;;;;;;;;5046808;28;20048;-59
2021/12/28 05:05:40;;;;;;;5.90;1.75;;;;;;;;;;5043626;28;20084;-52
2021/12/28 05:08:06;;;;;;;9.00;1.67;;;;;;;;;;5047176;28;20069;-54
2021/12/28 05:10:35;;;;;;;8.25;1.60;;;;;;;;;;5043954;28;20144;-60
2021/12/28 05:13:02;;;;;;;7.15;2.25;;;;;;;;;;5047601;28;20140;-54
2021/12/28 05:15:29;;;;;;;10.23;2.15;;;;;;;;;;5043949;28;20122;-60
2021/12/28 05:17:56;;;;;;;6.20;1.65;;;;;;;;;;5048358;28;20114;-55
2021/12/28 05:20:22;;;;;;;12.57;2.30;;;;;;;;;;5033925;28;20140;-56
2021/12/28 05:22:49;;;;;;;5.40;1.58;;;;;;;;;;5027337;28;20068;-55
2021/12/28 05:25:15;;;;;;;10.32;1.83;;;;;;;;;;5031071;28;20113;-54
2021/12/28 05:27:43;;;;;;;6.05;1.63;;;;;;;;;;5047150;28;20072;-57
2021/12/28 05:30:10;;;;;;;11.00;2.07;;;;;;;;;;5042594;28;20048;-56
2021/12/28 05:32:37;;;;;;;9.65;1.60;;;;;;;;;;5047148;28;20056;-56
2021/12/28 05:35:04;;;;;;;6.47;1.50;;;;;;;;;;5043145;28;20060;-55
2021/12/28 05:37:31;;;;;;;5.15;1.48;;;;;;;;;;5047451;28;20060;-52
2021/12/28 05:39:57;;;;;;;7.55;1.55;;;;;;;;;;5044855;28;20148;-54
2021/12/28 05:42:24;;;;;;;12.13;1.75;;;;;;;;;;5046477;28;20349;-55
2021/12/28 05:44:52;;;;;;;5.65;1.67;;;;;;;;;;5048225;28;20077;-56
2021/12/28 05:47:19;;;;;;;14.57;2.30;;;;;;;;;;5044185;28;20061;-55
2021/12/28 05:49:46;;;;;;;7.40;1.65;;;;;;;;;;5048872;28;20061;-54
2021/12/28 05:52:13;;;;;;;5.50;1.60;;;;;;;;;;5044907;28;20053;-59
2021/12/28 05:54:39;;;;;;;9.65;1.75;;;;;;;;;;5047175;28;20121;-56
2021/12/28 05:57:07;;;;;;;15.15;2.05;;;;;;;;;;5042807;28;20065;-54
2021/12/28 05:59:34;;;;;;;4.83;1.33;;;;;;;;;;5046632;28;20076;-56
2021/12/28 06:02:02;;;;;;;9.70;1.73;;;;;;;;;;5042734;28;20061;-60
2021/12/28 06:04:28;;;;;;;11.48;1.95;;;;;;;;;;5046023;28;20053;-59
2021/12/28 06:06:55;;;;;;;3.22;1.55;;;;;;;;;;5038873;28;20045;-54
2021/12/28 06:09:21;;;;;;;9.60;1.48;;;;;;;;;;5046510;28;20049;-58
2021/12/28 06:11:48;;;;;;;10.18;1.92;;;;;;;;;;5040895;28;20140;-57
2021/12/28 06:14:15;;;;;;;7.35;1.63;;;;;;;;;;5046140;28;20082;-57
2021/12/28 06:16:41;;;;;;;10.65;1.52;;;;;;;;;;5042935;28;20155;-58
2021/12/28 06:19:09;;;;;;;13.77;1.77;;;;;;;;;;5044933;28;20170;-60
2021/12/28 06:21:36;;;;;;;10.30;1.60;;;;;;;;;;5042322;28;20045;-55
2021/12/28 06:24:03;;;;;;;8.00;1.45;;;;;;;;;;5046048;28;20111;-59
2021/12/28 06:26:30;;;;;;;14.75;1.85;;;;;;;;;;5045856;28;20057;-55
2021/12/28 06:28:57;;;;;;;7.45;1.33;;;;;;;;;;5042003;28;20061;-56
2021/12/28 06:31:28;;;;;;;9.90;1.52;;;;;;;;;;5045747;28;20048;-56
2021/12/28 06:33:55;;;;;;;10.98;1.67;;;;;;;;;;5041644;28;20076;-60
2021/12/28 06:36:23;;;;;;;7.15;1.63;;;;;;;;;;5045009;28;20130;-57
2021/12/28 06:38:50;;;;;;;8.07;1.58;;;;;;;;;;5028901;28;20452;-59
2021/12/28 06:41:16;;;;;;;9.85;1.75;;;;;;;;;;5016802;28;20137;-56
2021/12/28 06:43:43;;;;;;;8.32;1.27;;;;;;;;;;5048180;28;20148;-58
2021/12/28 06:46:10;;;;;;;6.57;1.40;;;;;;;;;;5029078;28;20100;-59
2021/12/28 06:48:36;;;;;;;6.75;1.45;;;;;;;;;;5023491;28;20057;-57
2021/12/28 06:51:05;;;;;;;7.57;1.25;;;;;;;;;;5026493;28;20054;-55
2021/12/28 06:53:33;;;;;;;6.72;1.55;;;;;;;;;;5021648;28;20049;-54
2021/12/28 06:56:00;;;;;;;11.30;1.65;;;;;;;;;;5029477;28;20065;-59
2021/12/28 06:58:26;;;;;;;5.53;1.42;;;;;;;;;;5026864;28;20085;-57
2021/12/28 07:00:53;;;;;;;5.70;1.33;;;;;;;;;;5030819;28;20149;-57
2021/12/28 07:03:20;;;;;;;9.68;1.70;;;;;;;;;;5026264;28;20467;-57
2021/12/28 07:05:46;;;;;;;12.57;1.85;;;;;;;;;;5030028;28;20519;-57
2021/12/28 07:08:14;;;;;;;10.55;1.48;;;;;;;;;;5029623;28;20052;-55
2021/12/28 07:10:43;;;;;;;6.82;1.25;;;;;;;;;;5027092;28;20053;-59
2021/12/28 07:13:09;;;;;;;5.28;1.27;;;;;;;;;;5030122;28;20072;-59
2021/12/28 07:15:36;;;;;;;7.80;1.15;;;;;;;;;;5028699;28;20136;-58
2021/12/28 07:18:02;;;;;;;5.35;1.25;;;;;;;;;;5032888;28;20054;-56
2021/12/28 07:20:30;;;;;;;7.13;1.33;;;;;;;;;;5029035;28;20061;-56
2021/12/28 07:22:57;;;;;;;4.83;1.20;;;;;;;;;;5032129;28;20077;-59
2021/12/28 07:25:24;;;;;;;7.55;1.17;;;;;;;;;;5024931;28;20879;-59
2021/12/28 07:27:52;;;;;;;8.20;1.48;;;;;;;;;;5029410;28;20053;-59
2021/12/28 07:30:20;;;;;;;15.57;1.63;;;;;;;;;;5025577;28;20049;-59
2021/12/28 07:32:46;;;;;;;6.93;1.57;;;;;;;;;;5027968;28;20495;-57
2021/12/28 07:35:13;;;;;;;8.13;1.40;;;;;;;;;;5025466;28;20135;-57
2021/12/28 07:37:39;;;;;;;12.52;1.70;;;;;;;;;;5029212;28;20049;-52
2021/12/28 07:40:07;;;;;;;6.95;1.15;;;;;;;;;;5040058;28;20048;-54
2021/12/28 07:42:35;;;;;;;8.70;1.73;;;;;;;;;;5048594;28;20108;-58
2021/12/28 07:45:03;;;;;;;8.00;2.10;;;;;;;;;;5043045;28;20057;-57
2021/12/28 07:47:30;;;;;;;3.80;0.98;;;;;;;;;;5028957;28;20076;-55
2021/12/28 07:49:56;;;;;;;5.10;1.30;;;;;;;;;;5028670;28;20287;-56
2021/12/28 07:52:23;;;;;;;5.72;1.20;;;;;;;;;;5044146;28;20052;-58
2021/12/28 07:54:49;;;;;;;8.93;1.40;;;;;;;;;;5047904;28;20048;-59
2021/12/28 07:57:16;;;;;;;4.10;1.30;;;;;;;;;;5047072;28;20064;-54
2021/12/28 07:59:43;;;;;;;7.00;1.23;;;;;;;;;;5051049;28;20060;-58
2021/12/28 08:02:11;;;;;;;9.68;1.30;;;;;;;;;;5060934;28;20060;-56
2021/12/28 08:04:37;;;;;;;8.70;1.50;;;;;;;;;;5047567;28;20130;-57
2021/12/28 08:07:04;;;;;;;6.57;1.10;;;;;;;;;;5043919;28;20490;-53
2021/12/28 08:09:30;;;;;;;5.65;1.35;;;;;;;;;;5047328;28;20210;-59
2021/12/28 08:11:57;;;;;;;5.88;1.10;;;;;;;;;;5041232;28;20089;-56
2021/12/28 08:14:23;;;;;;;4.95;1.38;;;;;;;;;;5048120;28;20071;-55
2021/12/28 08:16:50;;;;;;;6.22;1.08;;;;;;;;;;5038107;28;20068;-55
2021/12/28 08:19:18;;;;;;;7.35;1.15;;;;;;;;;;5029296;28;20140;-57
2021/12/28 08:21:45;;;;;;;6.32;1.23;;;;;;;;;;5028153;28;20103;-58
2021/12/28 08:24:11;;;;;;;8.38;1.30;;;;;;;;;;5031548;28;20067;-57
2021/12/28 08:26:38;;;;;;;7.32;1.35;;;;;;;;;;5033441;28;20045;-57
2021/12/28 08:29:04;;;;;;;4.00;1.05;;;;;;;;;;5051208;28;20067;-58
2021/12/28 08:31:31;;;;;;;9.55;1.70;;;;;;;;;;5050852;28;20057;-55
2021/12/28 08:33:59;;;;;;;9.02;1.70;;;;;;;;;;5047613;28;20056;-59
2021/12/28 08:36:27;;;;;;;8.50;1.50;;;;;;;;;;5050935;28;20060;-55
2021/12/28 08:38:55;;;;;;;3.43;0.83;;;;;;;;;;5048004;28;20064;-60
2021/12/28 08:41:22;;;;;;;5.55;0.98;;;;;;;;;;5052081;28;20056;-57
2021/12/28 08:43:49;;;;;;;3.88;1.02;;;;;;;;;;5047886;28;20087;-57
2021/12/28 08:46:15;;;;;;;11.05;1.15;;;;;;;;;;5051381;28;20662;-58
2021/12/28 08:48:42;;;;;;;4.28;1.33;;;;;;;;;;5048631;28;20114;-56
2021/12/28 08:51:10;;;;;;;6.45;1.25;;;;;;;;;;5053180;28;20052;-56
2021/12/28 08:53:38;;;;;;;4.43;1.17;;;;;;;;;;5065760;28;20386;-58
2021/12/28 08:56:05;;;;;;;6.40;1.10;;;;;;;;;;5051440;28;20531;-56
2021/12/28 08:58:31;;;;;;;3.22;1.80;;;;;;;;;;5045903;28;20140;-58
2021/12/28 09:01:00;;;;;;;7.95;1.13;;;;;;;;;;5051889;28;20057;-56
2021/12/28 09:03:27;;;;;;;3.20;1.10;;;;;;;;;;5040664;28;20126;-56
2021/12/28 09:05:54;;;;;;;4.50;1.10;;;;;;;;;;5025385;28;20057;-56
2021/12/28 09:08:20;;;;;;;1.98;0.90;;;;;;;;;;5042843;28;20068;-57
2021/12/28 09:10:49;;;;;;;2.08;1.02;;;;;;;;;;5050333;28;20128;-54
2021/12/28 09:13:17;;;;;;;3.85;1.05;;;;;;;;;;5048221;28;20063;-56
2021/12/28 09:15:44;;;;;;;5.85;1.75;;;;;;;;;;5049068;28;20072;-57
2021/12/28 09:18:11;;;;;;;4.72;1.60;;;;;;;;;;5049001;28;20201;-56
2021/12/28 09:20:38;;;;;;;2.63;1.17;;;;;;;;;;5046193;28;20056;-56
2021/12/28 09:23:04;;;;;;;2.67;0.95;;;;;;;;;;5050027;28;20052;-57
2021/12/28 09:25:31;;;;;;;6.93;1.30;;;;;;;;;;5045948;28;20106;-56
2021/12/28 09:27:59;;;;;;;2.92;1.23;;;;;;;;;;5049827;28;20057;-57
2021/12/28 09:30:26;;;;;;;6.35;1.23;;;;;;;;;;5045908;28;20060;-58
2021/12/28 09:32:53;;;;;;;3.45;1.20;;;;;;;;;;5048998;28;20052;-56
2021/12/28 09:35:20;;;;;;;3.20;1.15;;;;;;;;;;5045507;28;20520;-57
2021/12/28 09:37:46;;;;;;;2.22;1.10;;;;;;;;;;5049716;28;20399;-56
2021/12/28 09:40:14;;;;;;;3.63;1.15;;;;;;;;;;5046001;28;20048;-59
2021/12/28 09:42:42;;;;;;;2.92;0.95;;;;;;;;;;5049706;28;20240;-57
2021/12/28 09:45:12;;;;;;;2.63;1.20;;;;;;;;;;5045906;28;20056;-56
2021/12/28 09:47:41;;;;;;;3.40;1.40;;;;;;;;;;5050447;28;20090;-57
2021/12/28 09:50:11;;;;;;;3.45;1.35;;;;;;;;;;5047309;28;20055;-56
2021/12/28 09:52:37;;;;;;;3.45;1.38;;;;;;;;;;5050947;28;20052;-54
2021/12/28 09:55:04;;;;;;;2.42;1.20;;;;;;;;;;5045460;28;20056;-56
2021/12/28 09:57:31;;;;;;;3.88;1.20;;;;;;;;;;5049709;28;20078;-57
2021/12/28 09:59:59;;;;;;;2.08;1.20;;;;;;;;;;5050444;28;20054;-57
2021/12/28 10:02:27;;;;;;;2.22;1.08;;;;;;;;;;5044298;28;20060;-59
2021/12/28 10:04:58;;;;;;;3.55;1.33;;;;;;;;;;5050490;28;20101;-58
2021/12/28 10:07:26;;;;;;;5.25;1.45;;;;;;;;;;5045312;28;20139;-57
2021/12/28 10:09:53;;;;;;;2.85;1.13;;;;;;;;;;5044497;28;20049;-56
2021/12/28 10:12:26;;;;;;;5.10;1.38;;;;;;;;;;5058260;28;20052;-58
2021/12/28 10:14:54;;;;;;;2.97;1.10;;;;;;;;;;5064816;28;20056;-56
2021/12/28 10:17:24;;;;;;;3.22;1.13;;;;;;;;;;5045550;28;20049;-57
2021/12/28 10:19:52;;;;;;;3.90;1.00;;;;;;;;;;5049934;28;20040;-57
2021/12/28 10:22:20;;;;;;;1.95;1.10;;;;;;;;;;5044627;28;20068;-60
2021/12/28 10:24:47;;;;;;;2.60;1.30;;;;;;;;;;5032149;28;20060;-55
2021/12/28 10:27:15;;;;;;;2.55;1.40;;;;;;;;;;5036498;28;20056;-57
2021/12/28 10:29:42;;;;;;;4.93;1.48;;;;;;;;;;5049649;28;20056;-57
2021/12/28 10:32:19;;;;;;;6.00;1.88;;;;;;;;;;5046189;28;20060;-56
2021/12/28 10:34:46;;;;;;;2.80;1.35;;;;;;;;;;5049282;28;20143;-55
2021/12/28 10:37:21;;;;;;;2.60;1.38;;;;;;;;;;5044990;28;20056;-57
2021/12/28 10:39:51;;;;;;;3.25;1.60;;;;;;;;;;5048920;28;20067;-54
2021/12/28 10:42:38;;;;;;;3.33;1.60;;;;;;;;;;5044891;28;20116;-54
2021/12/28 10:45:05;;;;;;;2.65;1.30;;;;;;;;;;5048442;28;20059;-57
2021/12/28 10:47:32;;;;;;;2.83;1.20;;;;;;;;;;5039165;28;20053;-57
2021/12/28 10:50:01;;;;;;;4.22;1.30;;;;;;;;;;5041071;28;20056;-56
2021/12/28 10:52:34;;;;;;;5.20;1.70;;;;;;;;;;5044776;28;20049;-58
2021/12/28 10:55:15;;;;;;;2.90;1.52;;;;;;;;;;5048941;28;20129;-57
2021/12/28 10:57:42;;;;;;;3.08;1.70;;;;;;;;;;5028340;28;20041;-54
2021/12/28 11:00:25;;;;;;;2.97;1.67;;;;;;;;;;5041771;28;20064;-57
2021/12/28 11:02:52;;;;;;;3.50;1.88;;;;;;;;;;5041117;28;20498;-56
2021/12/28 11:05:32;;;;;;;6.68;2.92;;;;;;;;;;5044594;28;20144;-58
2021/12/28 11:08:01;;;;;;;7.00;2.40;;;;;;;;;;5042966;28;20048;-56
2021/12/28 11:10:28;;;;;;;7.50;2.55;;;;;;;;;;5048617;28;20152;-57
2021/12/28 11:12:55;;;;;;;6.32;2.50;;;;;;;;;;5045747;28;20071;-56
2021/12/28 11:15:22;;;;;;;6.35;2.53;;;;;;;;;;5047718;28;20122;-58
2021/12/28 11:17:48;;;;;;;3.88;1.90;;;;;;;;;;5048303;28;20049;-58
2021/12/28 11:20:16;;;;;;;5.90;2.70;;;;;;;;;;5029079;28;20052;-58
2021/12/28 11:23:00;;;;;;;3.80;1.65;;;;;;;;;;5029837;28;20056;-58
2021/12/28 11:25:30;;;;;;;4.00;1.75;;;;;;;;;;5041020;28;20229;-55
2021/12/28 11:28:11;;;;;;;3.42;1.27;;;;;;;;;;5048617;28;20052;-57
2021/12/28 11:30:38;;;;;;;4.13;1.95;;;;;;;;;;5044237;28;20141;-56
2021/12/28 11:33:05;;;;;;;2.80;1.50;;;;;;;;;;5048332;28;20149;-60
2021/12/28 11:35:32;;;;;;;5.55;2.58;;;;;;;;;;5044514;28;20057;-55
2021/12/28 11:37:59;;;;;;;5.57;2.13;;;;;;;;;;5048350;28;20081;-56
2021/12/28 11:40:26;;;;;;;4.75;2.63;;;;;;;;;;5029242;28;20061;-59
2021/12/28 11:42:55;;;;;;;5.68;2.75;;;;;;;;;;5028042;28;20470;-59
2021/12/28 11:45:21;;;;;;;8.02;2.67;;;;;;;;;;5034751;28;20075;-56
2021/12/28 11:47:48;;;;;;;4.75;2.20;;;;;;;;;;5049307;28;20088;-54
2021/12/28 11:50:16;;;;;;;3.70;1.45;;;;;;;;;;5045567;28;20136;-55
2021/12/28 11:52:42;;;;;;;3.28;1.50;;;;;;;;;;5049608;28;20049;-59
2021/12/28 11:55:10;;;;;;;5.20;1.77;;;;;;;;;;5047566;28;20136;-58
2021/12/28 11:57:39;;;;;;;6.20;1.50;;;;;;;;;;5051109;28;20057;-58
2021/12/28 12:00:11;;;;;;;3.92;1.70;;;;;;;;;;5044671;28;20345;-57
2021/12/28 12:02:38;;;;;;;3.75;1.50;;;;;;;;;;5048327;28;20053;-59
2021/12/28 12:05:12;;;;;;;4.88;1.70;;;;;;;;;;5044331;28;20052;-57
2021/12/28 12:07:39;;;;;;;7.50;2.80;;;;;;;;;;5047690;28;20064;-57
2021/12/28 12:10:08;;;;;;;9.23;3.47;;;;;;;;;;5046569;28;20044;-58
2021/12/28 12:12:45;;;;;;;5.75;2.33;;;;;;;;;;5046521;28;20041;-56
2021/12/28 12:15:13;;;;;;;3.38;2.00;;;;;;;;;;5047752;28;20388;-57
2021/12/28 12:17:41;;;;;;;7.38;2.58;;;;;;;;;;5043796;28;20053;-57
2021/12/28 12:20:10;;;;;;;4.70;2.53;;;;;;;;;;5047849;28;20060;-59
2021/12/28 12:22:38;;;;;;;5.18;2.47;;;;;;;;;;5043255;28;20073;-55
2021/12/28 12:25:06;;;;;;;5.72;2.20;;;;;;;;;;5047752;28;20060;-57
2021/12/28 12:27:39;;;;;;;3.33;1.63;;;;;;;;;;5043591;28;20458;-57
2021/12/28 12:30:23;;;;;;;3.55;1.40;;;;;;;;;;5046258;28;20103;-58
2021/12/28 12:33:05;;;;;;;1.85;1.08;;;;;;;;;;5042540;28;20053;-56
2021/12/28 12:35:32;;;;;;;1.98;1.00;;;;;;;;;;5046896;28;20056;-58
2021/12/28 12:37:59;;;;;;;2.45;0.98;;;;;;;;;;5039618;28;20068;-57
2021/12/28 12:40:40;;;;;;;6.05;1.50;;;;;;;;;;5041532;28;20052;-57
2021/12/28 12:43:11;;;;;;;5.07;1.02;;;;;;;;;;5042706;28;20139;-57
2021/12/28 12:45:57;;;;;;;9.55;1.17;;;;;;;;;;5047042;28;20049;-56
2021/12/28 12:48:54;;;;;;;4.53;0.88;;;;;;;;;;5028478;28;20053;-58
2021/12/28 12:51:31;;;;;;;4.05;0.77;;;;;;;;;;5027393;28;20121;-57
2021/12/28 12:53:59;;;;;;;8.18;1.08;;;;;;;;;;5038648;28;20569;-56
2021/12/28 12:56:26;;;;;;;3.35;0.85;;;;;;;;;;5027360;28;20144;-57
2021/12/28 12:58:54;;;;;;;5.13;0.85;;;;;;;;;;5056275;28;20056;-57
2021/12/28 13:01:30;;;;;;;5.30;1.20;;;;;;;;;;5046995;28;20057;-57
2021/12/28 13:04:00;;;;;;;5.65;1.30;;;;;;;;;;5043622;28;20059;-57
2021/12/28 13:06:42;;;;;;;10.73;1.77;;;;;;;;;;5046985;28;20131;-57
2021/12/28 13:09:08;;;;;;;10.70;2.17;;;;;;;;;;5028582;28;20123;-58
2021/12/28 13:11:36;;;;;;;6.35;1.40;;;;;;;;;;5026601;28;20053;-57
2021/12/28 13:14:03;;;;;;;8.73;1.20;;;;;;;;;;5039827;28;20060;-58
2021/12/28 13:16:29;;;;;;;17.27;1.30;;;;;;;;;;5047265;28;20121;-58
2021/12/28 13:19:07;;;;;;;8.00;1.77;;;;;;;;;;5034273;28;20057;-57
2021/12/28 13:21:35;;;;;;;11.32;1.30;;;;;;;;;;5028014;28;20057;-57
2021/12/28 13:24:05;;;;;;;13.40;1.55;;;;;;;;;;5033199;28;20044;-57
2021/12/28 13:26:44;;;;;;;14.35;1.35;;;;;;;;;;5046375;28;20048;-58
2021/12/28 13:29:11;;;;;;;14.30;1.55;;;;;;;;;;5031324;28;20135;-57
2021/12/28 13:31:40;;;;;;;14.25;1.42;;;;;;;;;;5027196;28;20144;-56
2021/12/28 13:34:08;;;;;;;9.57;1.33;;;;;;;;;;5029409;28;20387;-56
2021/12/28 13:36:48;;;;;;;10.27;1.80;;;;;;;;;;5045783;28;20057;-56
2021/12/28 13:39:14;;;;;;;17.17;1.70;;;;;;;;;;5037024;28;20068;-57
2021/12/28 13:41:48;;;;;;;11.88;1.52;;;;;;;;;;5027359;28;20132;-58
2021/12/28 13:44:14;;;;;;;7.78;1.38;;;;;;;;;;5027168;28;20045;-57
2021/12/28 13:46:42;;;;;;;14.60;1.55;;;;;;;;;;5046435;28;20053;-58
2021/12/28 13:49:14;;;;;;;19.15;2.60;;;;;;;;;;5043529;28;20394;-57
2021/12/28 13:51:42;;;;;;;13.00;2.13;;;;;;;;;;5047274;28;20052;-57
2021/12/28 13:54:09;;;;;;;28.73;2.70;;;;;;;;;;5047999;28;20041;-59
2021/12/28 13:56:36;;;;;;;19.40;2.05;;;;;;;;;;5047511;28;20114;-57
2021/12/28 13:59:04;;;;;;;10.02;1.88;;;;;;;;;;5048083;28;20602;-58
2021/12/28 14:01:32;;;;;;;22.25;1.65;;;;;;;;;;5025483;28;20136;-57
2021/12/28 14:03:59;;;;;;;15.98;2.45;;;;;;;;;;5028922;28;20044;-57
2021/12/28 14:06:28;;;;;;;19.48;1.80;;;;;;;;;;5042253;28;20049;-59
2021/12/28 14:08:54;;;;;;;;;;;;;;;;;;5046741;28;20103;-54
2021/12/28 14:11:31;;;;;;;26.85;2.10;;;;;;;;;;5042346;28;19984;-57
2021/12/28 14:13:57;;;;;;;26.83;2.75;;;;;;;;;;5044544;28;20076;-56
2021/12/28 14:16:24;;;;;;;25.08;2.25;;;;;;;;;;5041580;28;20135;-57
2021/12/28 14:18:51;;;;;;;12.80;1.88;;;;;;;;;;5046304;28;20080;-57
2021/12/28 14:21:20;;;;;;;12.85;1.83;;;;;;;;;;5041606;28;20100;-58
2021/12/28 14:24:01;;;;;;;17.50;2.90;;;;;;;;;;5045874;28;20048;-57
2021/12/28 14:26:29;;;;;;;28.52;3.42;;;;;;;;;;5037787;28;20057;-58
2021/12/28 14:28:57;;;;;;;11.45;1.35;;;;;;;;;;5041987;28;20142;-57
2021/12/28 14:31:28;;;;;;;18.90;2.15;;;;;;;;;;5045484;28;20055;-57
2021/12/28 14:33:55;;;;;;;24.05;2.47;;;;;;;;;;5045407;28;20603;-57
2021/12/28 14:36:28;;;;;;;19.90;2.35;;;;;;;;;;5041317;28;20053;-59
2021/12/28 14:39:06;;;;;;;17.20;1.65;;;;;;;;;;5045410;28;20140;-58
2021/12/28 14:41:36;;;;;;;11.25;1.48;;;;;;;;;;5041402;28;20110;-59
2021/12/28 14:44:09;;;;;;;21.90;1.83;;;;;;;;;;5045437;28;20053;-57
2021/12/28 14:46:36;;;;;;;22.60;3.17;;;;;;;;;;5041039;28;20072;-58